Time;durP1;ratioP1;P1;durP2;ratioP2;P2;SDS_P1;SDS_P2;PMS_P1;PMS_P2;Temp;Humidity;BMP_temperature;BMP_pressure;BME280_temperature;BME280_humidity;BME280_pressure;Samples;Min_cycle;Max_cycle;Signal;HPM_P1;HPM_P2
2022/10/28 00:01:17;;;;;;;6.25;5.40;;;;;;;11.94;92.57;101453.86;1780243;78;20953;-67
2022/10/28 00:03:48;;;;;;;6.62;5.92;;;;;;;11.95;92.54;101457.70;1755236;80;21516;-67
2022/10/28 00:06:22;;;;;;;7.08;5.28;;;;;;;11.97;92.56;101452.20;1743738;81;21021;-70
2022/10/28 00:08:53;;;;;;;6.10;5.50;;;;;;;12.01;92.34;101449.51;1760007;80;21494;-67
2022/10/28 00:11:26;;;;;;;8.98;5.97;;;;;;;11.97;92.30;101449.02;1742563;81;21033;-66
2022/10/28 00:13:57;;;;;;;5.92;5.30;;;;;;;11.98;92.37;101452.03;1717568;82;21040;-66
2022/10/28 00:16:29;;;;;;;7.70;6.78;;;;;;;11.98;92.25;101456.52;1754820;81;21178;-65
2022/10/28 00:18:58;;;;;;;7.25;6.55;;;;;;;11.98;92.31;101449.84;1761850;80;20988;-66
2022/10/28 00:21:29;;;;;;;6.65;5.87;;;;;;;11.99;92.19;101459.54;1743576;82;21515;-66
2022/10/28 00:23:57;;;;;;;6.67;5.65;;;;;;;11.98;92.19;101455.19;1743148;82;21492;-66
2022/10/28 00:26:28;;;;;;;7.62;6.92;;;;;;;11.96;92.37;101460.72;1738620;81;21532;-66
2022/10/28 00:29:05;;;;;;;6.42;5.83;;;;;;;11.95;92.32;101460.88;1744339;81;21507;-66
2022/10/28 00:31:37;;;;;;;7.45;6.37;;;;;;;11.93;92.41;101462.89;1743355;81;21031;-65
2022/10/28 00:34:10;;;;;;;5.45;5.03;;;;;;;11.89;92.51;101465.03;1745949;81;21601;-67
2022/10/28 00:36:41;;;;;;;9.80;6.70;;;;;;;11.85;92.66;101464.54;1721727;82;20985;-66
2022/10/28 00:39:14;;;;;;;10.08;6.33;;;;;;;11.83;92.79;101463.87;1707072;82;20969;-67
2022/10/28 00:41:46;;;;;;;6.28;5.65;;;;;;;11.87;92.52;101461.70;1730849;81;21005;-67
2022/10/28 00:44:52;;;;;;;6.47;5.20;;;;;;;11.86;92.53;101466.19;1741489;81;21044;-68
2022/10/28 00:47:29;;;;;;;7.17;5.60;;;;;;;11.83;92.65;101461.20;1738526;82;21020;-67
2022/10/28 00:50:20;;;;;;;9.13;6.33;;;;;;;11.78;92.67;101468.88;1745257;81;20941;-67
2022/10/28 00:52:55;;;;;;;6.87;6.10;;;;;;;11.81;92.69;101465.03;1743401;81;21485;-66
2022/10/28 00:55:23;;;;;;;6.75;6.15;;;;;;;11.77;92.61;101476.58;1743337;81;21024;-66
2022/10/28 00:57:55;;;;;;;6.90;6.20;;;;;;;11.77;92.52;101467.23;1730305;81;21029;-67
2022/10/28 01:00:24;;;;;;;5.92;5.42;;;;;;;11.74;92.67;101472.90;1735590;81;21040;-67
2022/10/28 01:02:51;;;;;;;7.55;5.80;;;;;;;11.77;92.70;101473.91;1740992;81;21510;-66
2022/10/28 01:05:28;;;;;;;8.23;5.75;;;;;;;11.78;92.54;101473.40;1750616;80;21052;-67
2022/10/28 01:07:59;;;;;;;6.72;6.00;;;;;;;11.78;92.63;101469.39;1721303;82;21073;-66
2022/10/28 01:11:00;;;;;;;7.78;5.87;;;;;;;11.78;92.65;101474.23;1738684;81;21145;-65
2022/10/28 01:14:02;;;;;;;7.03;6.33;;;;;;;11.80;92.55;101472.73;1736655;81;21048;-66
2022/10/28 01:17:05;;;;;;;7.17;6.27;;;;;;;11.82;92.53;101476.06;1739347;81;21089;-67
2022/10/28 01:20:16;;;;;;;8.00;6.50;;;;;;;11.78;92.20;101470.73;1757227;81;21457;-66
2022/10/28 01:23:05;;;;;;;7.00;6.20;;;;;;;11.74;92.37;101476.91;1744050;80;21040;-67
2022/10/28 01:26:12;;;;;;;7.03;6.33;;;;;;;11.70;92.46;101472.91;1743707;81;21060;-66
2022/10/28 01:31:43;;;;;;;9.85;7.05;;;;;;;11.64;93.15;101477.56;1810303;77;22982;-70
2022/10/28 01:34:21;;;;;;;8.50;6.43;;;;;;;11.62;93.04;101472.89;1755719;78;20982;-66
2022/10/28 01:36:59;;;;;;;9.35;7.17;;;;;;;11.64;92.92;101476.22;1751188;80;21048;-66
2022/10/28 01:40:06;;;;;;;6.78;6.08;;;;;;;11.66;92.78;101473.74;1719620;82;21010;-68
2022/10/28 01:42:47;;;;;;;6.47;5.60;;;;;;;11.74;92.56;101468.06;1721132;82;21022;-68
2022/10/28 01:45:31;;;;;;;13.53;7.47;;;;;;;11.72;92.46;101470.90;1716449;82;20997;-67
2022/10/28 01:48:04;;;;;;;9.30;6.65;;;;;;;11.69;92.48;101473.89;1708710;82;21494;-67
2022/10/28 01:50:54;;;;;;;10.17;7.33;;;;;;;11.65;92.53;101478.73;1658295;85;21067;-66
2022/10/28 01:53:26;;;;;;;7.40;6.58;;;;;;;11.65;92.59;101472.05;1687767;82;21104;-67
2022/10/28 01:55:57;;;;;;;9.25;6.40;;;;;;;11.66;92.52;101472.91;1683389;84;21037;-67
2022/10/28 01:58:28;;;;;;;6.85;6.15;;;;;;;11.67;92.44;101474.05;1668777;84;21054;-67
2022/10/28 02:00:58;;;;;;;11.68;7.75;;;;;;;11.62;92.68;101473.75;1670561;83;21037;-65
2022/10/28 02:03:27;;;;;;;6.97;6.37;;;;;;;11.66;92.78;101478.26;1713789;82;21156;-65
2022/10/28 02:06:00;;;;;;;6.60;5.67;;;;;;;11.66;92.77;101471.07;1694524;82;21020;-66
2022/10/28 02:08:57;;;;;;;7.45;6.37;;;;;;;11.67;92.75;101480.73;1681099;82;21069;-67
2022/10/28 02:11:47;;;;;;;9.78;7.25;;;;;;;11.69;92.63;101480.57;1642433;85;21066;-66
2022/10/28 02:14:57;;;;;;;13.45;7.50;;;;;;;11.71;92.57;101472.40;1650049;85;20987;-67
2022/10/28 02:17:41;;;;;;;8.20;6.90;;;;;;;11.71;92.43;101473.22;1674069;84;21583;-68
2022/10/28 02:20:51;;;;;;;7.87;7.20;;;;;;;11.69;92.49;101471.23;1639553;85;21045;-66
2022/10/28 02:23:45;;;;;;;11.10;8.33;;;;;;;11.69;92.45;101465.88;1648024;86;21057;-67
2022/10/28 02:26:33;;;;;;;10.70;7.77;;;;;;;11.67;92.42;101466.05;1630723;86;21065;-67
2022/10/28 02:29:08;;;;;;;7.72;6.97;;;;;;;11.65;92.39;101464.55;1645915;84;21641;-66
2022/10/28 02:31:48;;;;;;;8.20;7.40;;;;;;;11.64;92.37;101465.55;1671249;84;21087;-67
2022/10/28 02:34:26;;;;;;;9.50;7.40;;;;;;;11.60;92.54;101469.08;1618704;86;21298;-67
2022/10/28 02:36:57;;;;;;;8.37;7.57;;;;;;;11.57;92.60;101467.23;1621619;84;21116;-68
2022/10/28 02:39:31;;;;;;;8.55;7.58;;;;;;;11.47;93.01;101472.24;1637973;86;21070;-67
2022/10/28 02:42:03;;;;;;;10.72;8.68;;;;;;;11.43;93.35;101469.58;1642342;84;21043;-66
2022/10/28 02:44:34;;;;;;;8.18;7.40;;;;;;;11.42;93.40;101466.56;1627366;85;21004;-72
2022/10/28 02:47:06;;;;;;;8.03;7.30;;;;;;;11.43;93.51;101474.91;1632884;86;21094;-65
2022/10/28 02:49:36;;;;;;;12.73;7.78;;;;;;;11.42;93.71;101469.23;1645370;84;21042;-65
2022/10/28 02:52:05;;;;;;;9.73;7.67;;;;;;;11.41;93.86;101478.73;1670352;84;21051;-66
2022/10/28 02:54:45;;;;;;;10.63;8.55;;;;;;;11.40;93.85;101474.41;1642419;86;21454;-66
2022/10/28 02:57:16;;;;;;;8.98;8.08;;;;;;;11.38;93.95;101470.56;1636647;86;21040;-65
2022/10/28 02:59:59;;;;;;;10.67;8.00;;;;;;;11.39;94.05;101480.23;1652229;84;21081;-67
2022/10/28 03:02:27;;;;;;;11.53;8.80;;;;;;;11.40;93.97;101477.91;1655674;84;21013;-67
2022/10/28 03:04:55;;;;;;;11.88;7.80;;;;;;;11.39;94.03;101472.73;1651814;84;21450;-67
2022/10/28 03:07:21;;;;;;;9.10;8.15;;;;;;;11.36;94.10;101473.91;1665134;84;21073;-65
2022/10/28 03:09:50;;;;;;;8.30;7.25;;;;;;;11.35;94.26;101472.73;1632418;85;21691;-65
2022/10/28 03:12:16;;;;;;;8.50;7.70;;;;;;;11.36;94.33;101469.05;1659105;85;21146;-66
2022/10/28 03:14:43;;;;;;;;;;;;;;;11.39;94.25;101472.22;1640021;85;21063;-68
2022/10/28 03:17:11;;;;;;;8.18;7.37;;;;;;;11.39;93.91;101470.05;1656960;84;20179;-67
2022/10/28 03:19:37;;;;;;;10.88;7.95;;;;;;;11.29;94.14;101478.23;1691665;83;21046;-67
2022/10/28 03:22:05;;;;;;;8.43;7.67;;;;;;;11.28;94.29;101477.41;1679327;83;20955;-65
2022/10/28 03:24:31;;;;;;;11.68;6.62;;;;;;;11.27;94.21;101467.71;1677570;83;21042;-69
2022/10/28 03:26:57;;;;;;;9.15;7.30;;;;;;;11.29;94.28;101467.55;1692769;83;22634;-69
2022/10/28 03:29:23;;;;;;;8.18;7.20;;;;;;;11.29;94.34;101473.72;1685217;83;21118;-67
2022/10/28 03:31:49;;;;;;;9.68;7.25;;;;;;;11.34;94.35;101464.37;1676429;84;21096;-67
2022/10/28 03:34:15;;;;;;;10.68;7.03;;;;;;;11.39;94.26;101466.88;1671573;84;21176;-67
2022/10/28 03:36:42;;;;;;;9.95;7.72;;;;;;;11.41;94.09;101468.05;1670403;84;21073;-67
2022/10/28 03:39:09;;;;;;;20.23;9.90;;;;;;;11.40;93.42;101466.41;1648970;84;21526;-66
2022/10/28 03:41:37;;;;;;;8.77;6.87;;;;;;;11.37;93.19;101467.55;1624203;84;21066;-67
2022/10/28 03:44:03;;;;;;;;;;;;;;;11.35;93.26;101470.89;1637514;85;21468;-69
2022/10/28 03:46:29;;;;;;;8.10;7.03;;;;;;;11.35;93.22;101473.55;1676608;84;20138;-67
2022/10/28 03:48:55;;;;;;;8.45;7.22;;;;;;;11.27;93.56;101473.05;1668415;84;21081;-68
2022/10/28 03:51:23;;;;;;;11.55;8.35;;;;;;;11.25;93.75;101471.55;1667243;84;21046;-67
2022/10/28 03:53:51;;;;;;;8.68;7.75;;;;;;;11.25;93.69;101472.38;1668604;84;21038;-68
2022/10/28 03:56:17;;;;;;;11.12;8.43;;;;;;;11.26;93.78;101473.20;1698711;84;21042;-67
2022/10/28 03:58:48;;;;;;;7.70;7.00;;;;;;;11.27;93.82;101460.21;1656549;85;21033;-67
2022/10/28 04:01:15;;;;;;;10.43;8.53;;;;;;;11.23;94.08;101469.55;1662705;84;21060;-69
2022/10/28 04:03:42;;;;;;;8.95;7.47;;;;;;;11.25;93.96;101464.37;1684989;84;21022;-67
2022/10/28 04:06:11;;;;;;;11.55;8.73;;;;;;;11.24;93.93;101462.69;1697884;83;21074;-66
2022/10/28 04:08:37;;;;;;;11.07;7.80;;;;;;;11.29;93.79;101460.37;1697417;82;21057;-67
2022/10/28 04:11:03;;;;;;;;;;;;;;;11.27;93.92;101466.89;1686118;84;21448;-71
2022/10/28 04:13:29;;;;;;;8.93;7.73;;;;;;;11.27;93.94;101460.21;1700301;83;20169;-66
2022/10/28 04:15:56;;;;;;;8.38;7.30;;;;;;;11.24;94.12;101462.69;1705640;83;21513;-65
2022/10/28 04:18:22;;;;;;;9.38;7.50;;;;;;;11.26;94.15;101466.53;1704327;83;21027;-66
2022/10/28 04:20:49;;;;;;;8.30;7.50;;;;;;;11.29;94.07;101463.55;1707305;83;20959;-66
2022/10/28 04:23:18;;;;;;;10.53;7.80;;;;;;;11.33;93.86;101463.55;1694763;83;21052;-66
2022/10/28 04:25:44;;;;;;;9.30;7.55;;;;;;;11.37;93.69;101466.72;1706620;81;20979;-69
2022/10/28 04:28:10;;;;;;;12.78;8.55;;;;;;;11.39;93.53;101466.88;1686120;83;20963;-66
2022/10/28 04:30:37;;;;;;;9.88;8.88;;;;;;;11.41;93.31;101471.55;1665041;85;21057;-66
2022/10/28 04:33:03;;;;;;;10.25;8.10;;;;;;;11.42;93.29;101472.41;1641477;85;21061;-67
2022/10/28 04:35:29;;;;;;;9.93;8.08;;;;;;;11.44;93.27;101467.22;1625382;86;21117;-66
2022/10/28 04:37:56;;;;;;;8.58;7.78;;;;;;;11.46;93.12;101466.55;1645636;85;21052;-66
2022/10/28 04:40:22;;;;;;;11.03;9.33;;;;;;;11.47;93.01;101466.05;1655981;85;21585;-67
2022/10/28 04:42:48;;;;;;;14.20;8.53;;;;;;;11.47;92.93;101465.57;1651204;85;21107;-66
2022/10/28 04:45:15;;;;;;;9.20;7.83;;;;;;;11.52;92.88;101465.56;1656436;85;21002;-72
2022/10/28 04:47:43;;;;;;;9.60;8.60;;;;;;;11.54;92.69;101463.05;1654456;84;21053;-67
2022/10/28 04:50:09;;;;;;;12.88;8.55;;;;;;;11.57;92.57;101461.90;1666880;84;20994;-67
2022/10/28 04:52:35;;;;;;;9.00;7.83;;;;;;;11.60;92.46;101460.20;1658456;85;21069;-67
2022/10/28 04:55:04;;;;;;;11.05;8.68;;;;;;;11.62;92.31;101460.87;1662021;85;21592;-66
2022/10/28 04:57:31;;;;;;;9.03;8.13;;;;;;;11.63;92.13;101462.05;1657566;85;21659;-67
2022/10/28 04:59:58;;;;;;;12.00;9.30;;;;;;;11.62;92.19;101460.87;1670509;84;21498;-67
2022/10/28 05:02:24;;;;;;;10.18;9.05;;;;;;;11.60;92.17;101461.55;1705136;82;21003;-67
2022/10/28 05:04:50;;;;;;;10.90;8.05;;;;;;;11.59;92.39;101463.90;1696303;82;21117;-68
2022/10/28 05:07:16;;;;;;;9.10;7.87;;;;;;;11.57;92.36;101460.56;1706058;82;21073;-67
2022/10/28 05:09:43;;;;;;;10.50;8.38;;;;;;;11.47;92.95;101465.57;1709356;82;21034;-70
2022/10/28 05:12:08;;;;;;;;;;;;;;;11.45;93.36;101470.72;1641681;86;21042;-72
2022/10/28 05:14:35;;;;;;;9.38;8.38;;;;;;;11.42;93.32;101470.56;1633311;85;20124;-70
2022/10/28 05:17:01;;;;;;;10.53;9.45;;;;;;;11.36;93.37;101475.23;1641378;85;21003;-72
2022/10/28 05:19:27;;;;;;;10.63;8.98;;;;;;;11.38;93.42;101473.23;1641383;85;20988;-71
2022/10/28 05:21:53;;;;;;;;;;;;;;;11.35;93.53;101473.55;1638653;85;20982;-75
2022/10/28 05:24:20;;;;;;;12.67;9.50;;;;;;;11.37;93.58;101476.89;1646498;85;20114;-70
2022/10/28 05:26:46;;;;;;;11.48;9.05;;;;;;;11.31;93.87;101482.90;1701917;82;21098;-68
2022/10/28 05:29:13;;;;;;;18.80;10.75;;;;;;;11.31;93.97;101484.23;1697594;83;21034;-69
2022/10/28 05:31:39;;;;;;;;;;;;;;;11.33;93.87;101486.23;1708238;83;21122;-67
2022/10/28 05:34:06;;;;;;;11.67;9.93;;;;;;;11.35;94.15;101484.23;1714109;82;20175;-72
2022/10/28 05:36:32;;;;;;;11.90;10.38;;;;;;;11.34;94.25;101485.25;1705276;82;21788;-69
2022/10/28 05:38:58;;;;;;;11.95;10.35;;;;;;;11.37;94.71;101482.23;1679437;84;21006;-70
2022/10/28 05:41:25;;;;;;;14.75;10.80;;;;;;;11.44;94.92;101483.24;1689261;83;21052;-67
2022/10/28 05:43:53;;;;;;;9.98;8.90;;;;;;;11.50;94.69;101483.91;1697518;83;21435;-67
2022/10/28 05:46:21;;;;;;;14.80;10.60;;;;;;;11.56;93.84;101482.91;1662936;84;21514;-66
2022/10/28 05:48:48;;;;;;;14.53;12.67;;;;;;;11.51;93.20;101483.42;1676735;83;21073;-68
2022/10/28 05:51:15;;;;;;;14.45;11.05;;;;;;;11.50;93.59;101485.23;1690273;83;21041;-66
2022/10/28 05:53:43;;;;;;;21.42;15.55;;;;;;;11.55;94.08;101486.60;1670932;83;21000;-67
2022/10/28 05:56:10;;;;;;;11.63;10.43;;;;;;;11.60;94.09;101488.25;1664226;84;21045;-67
2022/10/28 05:58:38;;;;;;;13.53;11.48;;;;;;;11.62;93.37;101484.91;1669550;84;21076;-65
2022/10/28 06:01:09;;;;;;;18.75;11.78;;;;;;;11.61;93.00;101488.09;1659925;83;21595;-66
2022/10/28 06:03:35;;;;;;;12.58;11.18;;;;;;;11.61;93.28;101489.93;1671574;84;21062;-66
2022/10/28 06:06:01;;;;;;;15.13;10.20;;;;;;;11.62;93.14;101492.44;1670437;84;21196;-67
2022/10/28 06:08:27;;;;;;;14.70;10.35;;;;;;;11.64;92.88;101497.59;1670931;83;21468;-69
2022/10/28 06:10:54;;;;;;;12.88;10.20;;;;;;;11.68;93.56;101505.63;1670679;83;21164;-63
2022/10/28 06:13:26;;;;;;;15.85;11.35;;;;;;;11.72;93.28;101508.80;1682819;83;21033;-69
2022/10/28 06:15:55;;;;;;;11.38;10.10;;;;;;;11.74;92.22;101510.30;1679188;84;21068;-77
2022/10/28 06:18:23;;;;;;;15.00;9.85;;;;;;;11.72;92.61;101508.80;1696004;83;21519;-78
2022/10/28 06:20:56;;;;;;;18.65;11.65;;;;;;;11.70;91.84;101508.97;1714413;82;21025;-77
2022/10/28 06:23:25;;;;;;;14.70;10.25;;;;;;;11.64;92.09;101509.61;1725407;82;21538;-75
2022/10/28 06:25:57;;;;;;;10.30;9.25;;;;;;;11.65;92.55;101512.63;1717833;82;21038;-77
2022/10/28 06:28:23;;;;;;;13.88;10.10;;;;;;;11.67;92.64;101518.63;1728103;82;21086;-78
2022/10/28 06:30:50;;;;;;;12.47;10.82;;;;;;;11.66;92.51;101518.31;1755098;81;22194;-77
2022/10/28 06:33:16;;;;;;;13.50;10.75;;;;;;;11.70;93.03;101516.98;1730887;81;21049;-78
2022/10/28 06:35:42;;;;;;;14.47;10.70;;;;;;;11.74;92.94;101516.97;1719110;82;21059;-81
2022/10/28 06:38:10;;;;;;;18.40;11.50;;;;;;;11.78;93.35;101518.30;1699634;82;21095;-78
2022/10/28 06:40:37;;;;;;;17.32;12.18;;;;;;;11.83;93.01;101523.16;1714964;82;21085;-78
2022/10/28 06:43:08;;;;;;;12.30;11.15;;;;;;;11.88;92.64;101517.64;1720051;82;21055;-75
2022/10/28 09:11:11;;;;;;;5.67;5.17;;;;;;;15.89;68.13;101482.06;1720906;81;22267;-74
2022/10/28 09:14:05;;;;;;;7.65;6.97;;;;;;;15.78;66.49;101481.25;1735043;81;21056;-74
2022/10/28 09:17:00;;;;;;;8.65;4.95;;;;;;;15.55;66.53;101480.94;1721310;81;21083;-75
2022/10/28 09:19:41;;;;;;;4.78;4.30;;;;;;;15.42;67.14;101473.28;1724904;82;21144;-75
2022/10/28 09:22:19;;;;;;;4.92;4.25;;;;;;;15.30;65.26;101472.45;1733126;81;21043;-73
2022/10/28 09:24:57;;;;;;;7.92;4.45;;;;;;;15.30;65.26;101472.45;1701006;83;21541;-74
2022/10/28 09:28:01;;;;;;;9.30;4.50;;;;;;;15.21;65.00;101463.37;1713626;83;21091;-74
2022/10/28 09:30:42;;;;;;;4.85;4.53;;;;;;;15.16;65.54;101465.27;1707147;83;21113;-76
2022/10/28 09:33:35;;;;;;;4.22;3.65;;;;;;;15.15;64.75;101467.65;1695234;83;21119;-74
2022/10/28 09:36:07;;;;;;;3.55;2.80;;;;;;;15.15;64.18;101468.47;1707692;83;21059;-75
2022/10/28 09:38:36;;;;;;;5.90;2.67;;;;;;;15.15;62.43;101471.67;1708948;83;21027;-76
2022/10/28 09:41:14;;;;;;;3.42;2.35;;;;;;;15.11;60.69;101464.52;1674688;83;20982;-77
2022/10/28 09:44:02;;;;;;;2.95;1.98;;;;;;;15.09;60.96;101458.50;1683671;82;21029;-74
2022/10/28 09:46:30;;;;;;;2.90;2.60;;;;;;;15.08;60.13;101461.38;1734373;82;21082;-75
2022/10/28 09:49:04;;;;;;;1.12;0.60;;;;;;;14.98;60.13;101457.14;1724037;82;20998;-75
2022/10/28 09:51:52;;;;;;;0.60;0.60;;;;;;;14.91;58.09;101452.72;1724997;82;21005;-75
2022/10/28 09:54:24;;;;;;;2.12;1.22;;;;;;;14.87;57.34;101450.92;1724035;82;21132;-78
2022/10/28 09:56:51;;;;;;;1.20;0.90;;;;;;;14.85;57.72;101453.49;1722859;81;21364;-76
2022/10/28 09:59:17;;;;;;;2.80;0.90;;;;;;;14.90;57.52;101450.56;1737543;81;21085;-76
2022/10/28 10:01:46;;;;;;;1.15;0.35;;;;;;;14.93;58.10;101448.81;1686102;83;21046;-74
2022/10/28 10:04:24;;;;;;;1.47;0.90;;;;;;;14.93;57.85;101443.45;1752447;81;21069;-75
2022/10/28 10:07:04;;;;;;;2.98;2.27;;;;;;;14.86;56.91;101449.28;1703421;83;21599;-76
2022/10/28 10:09:35;;;;;;;1.35;1.10;;;;;;;14.78;56.82;101439.98;1720968;83;21128;-76
2022/10/28 10:12:08;;;;;;;2.92;1.10;;;;;;;14.69;57.52;101436.59;1703662;83;21050;-77
2022/10/28 10:14:48;;;;;;;4.42;1.22;;;;;;;14.68;57.66;101446.17;1704594;83;21078;-77
2022/10/28 10:17:31;;;;;;;2.50;2.02;;;;;;;14.67;57.72;101433.77;1727385;81;20989;-79
2022/10/28 10:20:05;;;;;;;3.00;2.20;;;;;;;14.68;58.21;101437.60;1726844;81;22099;-76
2022/10/28 10:22:36;;;;;;;6.12;2.17;;;;;;;14.73;57.99;101430.31;1735151;81;21064;-76
2022/10/28 10:25:24;;;;;;;3.22;2.17;;;;;;;14.76;58.23;101426.75;1743036;81;21116;-76
2022/10/28 10:27:52;;;;;;;;;;;;;;;14.84;58.18;101426.31;1723779;81;21120;-79
2022/10/28 10:30:27;;;;;;;1.32;1.22;;;;;;;14.84;57.54;101424.45;1689133;82;20155;-78
2022/10/28 10:32:54;;;;;;;4.72;1.67;;;;;;;14.79;57.15;101422.88;1681711;84;21642;-77
2022/10/28 10:35:26;;;;;;;1.87;1.40;;;;;;;14.73;56.87;101420.92;1699608;83;21115;-75
2022/10/28 10:38:00;;;;;;;1.67;1.30;;;;;;;14.74;57.30;101422.08;1654926;85;21131;-76
2022/10/28 10:40:40;;;;;;;1.55;1.17;;;;;;;14.83;57.18;101415.27;1651655;84;21068;-77
2022/10/28 10:43:32;;;;;;;2.17;1.37;;;;;;;14.82;56.48;101417.10;1695123;83;21938;-75
2022/10/28 10:46:15;;;;;;;2.25;1.67;;;;;;;14.49;56.84;101360.38;1678931;84;21078;-76
2022/10/28 10:48:42;;;;;;;1.90;1.25;;;;;;;14.81;56.46;101421.34;1675558;84;21090;-74
2022/10/28 10:51:24;;;;;;;1.62;1.47;;;;;;;14.76;57.15;101416.53;1678098;84;21054;-75
2022/10/28 10:53:59;;;;;;;4.12;1.52;;;;;;;14.78;57.43;101411.80;1677053;84;22176;-71
2022/10/28 10:56:31;;;;;;;2.12;1.62;;;;;;;14.48;57.69;101355.50;1675054;84;21123;-75
2022/10/28 10:59:04;;;;;;;2.95;1.98;;;;;;;14.90;57.62;101415.66;1662079;84;22327;-74
2022/10/28 11:01:35;;;;;;;3.37;2.80;;;;;;;14.94;57.18;101411.56;1681648;84;21053;-75
2022/10/28 11:04:05;;;;;;;2.60;1.90;;;;;;;14.89;57.25;101413.98;1668555;84;21361;-76
2022/10/28 11:06:37;;;;;;;3.55;2.45;;;;;;;14.89;57.11;101411.30;1662771;84;21650;-76
2022/10/28 11:09:06;;;;;;;1.42;1.22;;;;;;;14.92;57.47;101402.87;1664175;84;21156;-77
2022/10/28 11:11:39;;;;;;;3.90;1.37;;;;;;;14.97;57.03;101405.83;1651151;86;21173;-75
2022/10/28 11:14:15;;;;;;;1.67;1.25;;;;;;;15.03;57.48;101406.06;1684396;84;21137;-74
2022/10/28 11:16:53;;;;;;;2.42;1.35;;;;;;;15.09;57.43;101394.58;1681511;83;21531;-76
2022/10/28 11:19:31;;;;;;;5.33;1.95;;;;;;;15.13;56.77;101391.30;1677164;84;21075;-76
2022/10/28 11:22:35;;;;;;;3.55;2.17;;;;;;;15.15;57.17;101393.28;1720648;82;21100;-75
2022/10/28 11:25:35;;;;;;;1.50;1.40;;;;;;;15.18;57.04;101393.39;1699868;82;21518;-74
2022/10/28 11:28:28;;;;;;;2.67;1.17;;;;;;;15.21;56.76;101393.55;1669699;84;21536;-75
2022/10/28 11:31:11;;;;;;;2.25;1.32;;;;;;;15.15;56.30;101386.56;1670738;84;21043;-77
2022/10/28 11:34:01;;;;;;;4.05;1.27;;;;;;;15.09;56.04;101390.03;1674456;84;20966;-75
2022/10/28 11:36:35;;;;;;;2.60;1.27;;;;;;;14.99;56.57;101375.59;1681603;84;21552;-76
2022/10/28 11:39:28;;;;;;;2.05;1.00;;;;;;;15.06;56.45;101378.84;1677616;84;21751;-77
2022/10/28 11:42:24;;;;;;;2.83;1.15;;;;;;;15.07;56.36;101377.31;1685413;84;21537;-76
2022/10/28 11:45:02;;;;;;;1.62;1.45;;;;;;;15.07;56.45;101374.62;1695602;83;21037;-71
2022/10/28 11:47:52;;;;;;;5.08;1.22;;;;;;;15.08;55.99;101371.42;1699402;83;21122;-75
2022/10/28 11:50:57;;;;;;;1.65;1.55;;;;;;;15.08;56.23;101368.22;1705778;83;21068;-76
2022/10/28 11:53:44;;;;;;;1.27;0.93;;;;;;;15.14;56.39;101366.61;1728236;82;21629;-75
2022/10/28 11:56:37;;;;;;;3.02;1.57;;;;;;;15.19;56.80;101369.56;1727274;83;21026;-76
2022/10/28 11:59:11;;;;;;;1.25;1.10;;;;;;;15.21;56.31;101363.48;1715367;81;21045;-75
2022/10/28 12:02:14;;;;;;;3.92;1.80;;;;;;;15.16;55.71;101362.73;1740854;81;21065;-75
2022/10/28 12:04:55;;;;;;;1.32;1.00;;;;;;;15.10;56.28;101359.45;1709506;81;21041;-77
2022/10/28 12:07:48;;;;;;;1.32;1.20;;;;;;;15.07;56.70;101361.69;1719648;82;21052;-75
2022/10/28 12:10:23;;;;;;;0.95;0.95;;;;;;;15.05;56.55;101358.38;1714731;82;21066;-75
2022/10/28 12:13:01;;;;;;;3.35;0.70;;;;;;;15.03;55.83;101356.39;1666342;82;21061;-73
2022/10/28 12:15:51;;;;;;;12.05;10.88;;;;;;;14.98;56.39;101357.81;1739004;81;21037;-77
2022/10/28 12:18:54;;;;;;;3.35;1.70;;;;;;;14.97;56.66;101354.82;1690112;83;21064;-76
2022/10/28 12:21:43;;;;;;;3.62;1.70;;;;;;;14.97;56.47;101348.59;1738707;81;21025;-78
2022/10/28 12:24:18;;;;;;;2.02;1.92;;;;;;;14.95;56.91;101347.96;1741934;81;21064;-76
2022/10/28 12:26:56;;;;;;;3.08;2.72;;;;;;;14.94;56.88;101348.48;1732065;82;21030;-77
2022/10/28 12:29:32;;;;;;;2.98;1.62;;;;;;;14.95;56.85;101347.96;1729522;81;21001;-76
2022/10/28 12:32:12;;;;;;;3.20;2.90;;;;;;;14.95;56.68;101346.09;1741147;81;20989;-75
2022/10/28 12:34:43;;;;;;;1.05;0.88;;;;;;;14.97;56.53;101346.77;1739481;81;21022;-76
2022/10/28 12:37:19;;;;;;;5.25;0.90;;;;;;;14.94;56.98;101344.97;1697434;83;21079;-75
2022/10/28 12:40:21;;;;;;;2.42;0.98;;;;;;;14.92;56.63;101338.45;1704782;83;21570;-78
2022/10/28 12:43:11;;;;;;;2.77;1.07;;;;;;;14.85;57.48;101334.87;1698460;83;21255;-77
2022/10/28 12:48:44;;;;;;;2.55;1.20;;;;;;;14.80;57.59;101334.61;1805392;78;23035;-77
2022/10/28 12:51:19;;;;;;;2.77;1.10;;;;;;;14.82;57.70;101335.77;1753735;80;21389;-75
2022/10/28 12:53:56;;;;;;;4.10;1.15;;;;;;;14.82;57.58;101335.77;1715567;80;21164;-76
2022/10/28 12:56:30;;;;;;;3.98;1.12;;;;;;;14.82;58.07;101324.50;1716193;82;21140;-74
2022/10/28 12:59:20;;;;;;;6.53;1.50;;;;;;;14.84;58.16;101325.66;1707502;82;21089;-75
2022/10/28 13:01:49;;;;;;;4.47;1.92;;;;;;;14.85;58.17;101327.34;1724862;81;21027;-76
2022/10/28 13:04:15;;;;;;;1.55;0.98;;;;;;;14.85;58.23;101325.99;1729715;81;21032;-75
2022/10/28 13:06:53;;;;;;;2.87;1.22;;;;;;;14.87;58.50;101330.66;1696230;84;21699;-76
2022/10/28 13:09:39;;;;;;;1.10;1.05;;;;;;;14.86;58.84;101324.47;1701224;82;20985;-74
2022/10/28 13:12:10;;;;;;;;;;;;;;;14.88;59.09;101330.47;1711902;82;21216;-76
2022/10/28 13:15:20;;;;;;;1.95;1.10;;;;;;;14.84;58.91;101327.83;1719750;82;20144;-76
2022/10/28 13:18:19;;;;;;;2.55;1.00;;;;;;;14.80;58.97;101326.55;1717980;80;21037;-74
2022/10/28 13:21:20;;;;;;;2.70;1.65;;;;;;;14.78;59.43;101325.92;1714449;81;21020;-75
2022/10/28 13:24:11;;;;;;;4.80;1.40;;;;;;;14.73;59.39;101323.82;1704389;82;21065;-74
2022/10/28 13:26:43;;;;;;;1.95;1.15;;;;;;;14.65;59.29;101321.77;1717073;82;21573;-73
2022/10/28 13:29:24;;;;;;;2.17;0.93;;;;;;;14.59;59.64;101325.52;1724899;82;21029;-75
2022/10/28 13:31:52;;;;;;;4.28;1.42;;;;;;;14.57;59.94;101332.11;1718729;82;22108;-74
2022/10/28 13:34:29;;;;;;;5.85;1.62;;;;;;;14.55;60.48;101328.23;1718788;80;20989;-75
2022/10/28 13:36:58;;;;;;;;;;;;;;;14.55;60.75;101323.39;1723539;82;21133;-75
2022/10/28 13:39:43;;;;;;;3.37;1.32;;;;;;;14.53;60.94;101327.60;1742090;80;20138;-74
2022/10/28 13:42:22;;;;;;;1.57;1.47;;;;;;;14.41;61.05;101324.59;1691473;83;21633;-76
2022/10/28 13:44:51;;;;;;;2.40;2.00;;;;;;;14.36;61.20;101320.30;1697790;83;21000;-73
2022/10/28 13:47:33;;;;;;;6.60;2.40;;;;;;;14.32;61.32;101318.20;1693165;84;21084;-74
2022/10/28 13:50:13;;;;;;;3.30;2.45;;;;;;;14.28;61.56;101317.74;1720219;82;21634;-77
2022/10/28 13:52:45;;;;;;;3.02;1.82;;;;;;;14.27;62.01;101321.95;1718634;82;21033;-77
2022/10/28 13:55:43;;;;;;;3.77;1.72;;;;;;;14.25;62.22;101317.28;1712863;83;21069;-74
2022/10/28 13:58:23;;;;;;;7.80;2.42;;;;;;;14.21;62.46;101317.66;1731816;82;21084;-74
2022/10/28 14:00:50;;;;;;;2.27;2.00;;;;;;;14.15;62.77;101314.39;1747719;80;21118;-74
2022/10/28 14:03:24;;;;;;;4.25;3.08;;;;;;;14.11;63.09;101317.13;1740532;81;21000;-74
2022/10/28 14:05:57;;;;;;;3.22;2.02;;;;;;;14.07;63.42;101311.83;1717633;82;21085;-74
2022/10/28 14:08:33;;;;;;;5.12;3.27;;;;;;;14.05;63.67;101308.48;1698066;82;21730;-76
2022/10/28 14:11:07;;;;;;;4.67;2.62;;;;;;;14.02;63.92;101314.23;1681538;84;21596;-75
2022/10/28 14:13:48;;;;;;;2.90;2.70;;;;;;;13.98;64.05;101311.61;1680476;84;21041;-75
2022/10/28 14:16:23;;;;;;;2.98;2.45;;;;;;;13.92;64.10;101313.19;1676538;83;21079;-76
2022/10/28 14:19:04;;;;;;;2.42;2.25;;;;;;;13.87;64.57;101312.08;1686049;84;21000;-75
2022/10/28 14:22:02;;;;;;;4.28;3.20;;;;;;;13.79;64.95;101311.67;1673673;84;22060;-76
2022/10/28 14:24:36;;;;;;;5.22;2.92;;;;;;;13.74;65.34;101309.53;1681185;83;22220;-74
2022/10/28 14:27:11;;;;;;;5.03;2.80;;;;;;;13.70;65.54;101313.61;1718297;83;21042;-74
2022/10/28 14:29:49;;;;;;;7.85;3.92;;;;;;;13.67;65.71;101315.82;1717934;83;21037;-74
2022/10/28 14:32:42;;;;;;;8.58;3.12;;;;;;;13.67;65.88;101308.61;1718999;81;21711;-73
2022/10/28 14:35:26;;;;;;;4.75;3.52;;;;;;;13.66;65.93;101310.98;1714250;83;21049;-73